createdAt,value
2018-03-29T00:00:41.851Z,-3.3
2018-03-29T00:01:31.847Z,-3.3
2018-03-29T00:02:22.377Z,-3.3
2018-03-29T00:03:12.254Z,-3.3
2018-03-29T00:04:02.807Z,-3.3
2018-03-29T00:04:51.872Z,-3.4
2018-03-29T00:05:41.744Z,-3.4
2018-03-29T00:06:32.670Z,-3.4
2018-03-29T00:07:22.751Z,-3.4
2018-03-29T00:08:12.795Z,-3.4
2018-03-29T00:09:02.662Z,-3.4
2018-03-29T00:09:52.924Z,-3.5
2018-03-29T00:10:43.308Z,-3.5
2018-03-29T00:11:32.544Z,-3.5
2018-03-29T00:12:22.389Z,-3.5
2018-03-29T00:13:12.966Z,-3.5
2018-03-29T00:14:03.218Z,-3.5
2018-03-29T00:14:53.540Z,-3.5
2018-03-29T00:15:43.621Z,-3.5
2018-03-29T00:16:33.481Z,-3.6
2018-03-29T00:17:23.453Z,-3.6
2018-03-29T00:18:12.998Z,-3.6
2018-03-29T00:19:03.676Z,-3.6
2018-03-29T00:19:53.436Z,-3.6
2018-03-29T00:20:43.681Z,-3.6
2018-03-29T00:21:33.726Z,-3.6
2018-03-29T00:22:23.816Z,-3.6
2018-03-29T00:23:13.846Z,-3.6
2018-03-29T00:24:03.333Z,-3.6
2018-03-29T00:24:53.769Z,-3.6
2018-03-29T00:25:44.316Z,-3.7
2018-03-29T00:26:33.591Z,-3.7
2018-03-29T00:32:24.004Z,-3.8
2018-03-29T00:33:14.813Z,-3.8
2018-03-29T00:34:04.658Z,-3.8
2018-03-29T00:34:54.931Z,-3.9
2018-03-29T00:35:44.130Z,-3.9
2018-03-29T00:36:34.791Z,-3.9
2018-03-29T00:37:25.145Z,-3.9
2018-03-29T00:38:14.887Z,-3.9
2018-03-29T00:39:04.935Z,-3.8
2018-03-29T00:39:54.717Z,-3.8
2018-03-29T00:40:45.351Z,-3.9
2018-03-29T00:41:35.403Z,-3.8
2018-03-29T00:42:25.473Z,-3.9
2018-03-29T00:43:15.500Z,-3.9
2018-03-29T00:44:05.292Z,-3.9
2018-03-29T00:44:55.640Z,-3.9
2018-03-29T00:45:45.464Z,-3.9
2018-03-29T00:46:35.185Z,-3.9
2018-03-29T00:47:25.534Z,-3.9
2018-03-29T00:48:15.880Z,-3.9
2018-03-29T00:49:05.359Z,-4
2018-03-29T00:49:55.449Z,-4
2018-03-29T00:50:46.042Z,-4
2018-03-29T00:51:36.191Z,-4
2018-03-29T00:52:25.880Z,-4
2018-03-29T00:53:16.240Z,-4.1
2018-03-29T00:54:05.704Z,-4
2018-03-29T00:54:56.344Z,-4
2018-03-29T00:55:46.390Z,-4
2018-03-29T00:56:36.174Z,-4
2018-03-29T00:57:26.216Z,-4
2018-03-29T00:58:16.551Z,-4
2018-03-29T00:59:06.634Z,-4
2018-03-29T00:59:56.109Z,-4
2018-03-29T01:00:46.738Z,-4.1
2018-03-29T01:01:36.576Z,-4.1
2018-03-29T01:02:26.868Z,-4
2018-03-29T01:03:16.651Z,-4.1
2018-03-29T01:04:06.688Z,-4.1
2018-03-29T01:04:57.025Z,-4.1
2018-03-29T01:05:47.089Z,-4.1
2018-03-29T01:06:37.134Z,-4.1
2018-03-29T01:07:26.923Z,-4.1
2018-03-29T01:08:17.329Z,-4.1
2018-03-29T01:09:07.326Z,-4.1
2018-03-29T01:09:57.106Z,-4.1
2018-03-29T01:10:47.161Z,-4.1
2018-03-29T01:11:37.229Z,-4.1
2018-03-29T01:12:27.546Z,-4.1
2018-03-29T01:13:17.627Z,-4.1
2018-03-29T01:14:07.405Z,-4.1
2018-03-29T01:14:57.450Z,-4.1
2018-03-29T01:15:47.809Z,-4.1
2018-03-29T01:16:37.590Z,-4.1
2018-03-29T01:17:27.895Z,-4.2
2018-03-29T01:18:17.700Z,-4.2
2018-03-29T01:19:08.040Z,-4.2
2018-03-29T01:19:57.804Z,-4.1
2018-03-29T01:20:47.850Z,-4.2
2018-03-29T01:21:37.931Z,-4.2
2018-03-29T01:22:27.996Z,-4.2
2018-03-29T01:23:18.028Z,-4.2
2018-03-29T01:24:08.370Z,-4.2
2018-03-29T01:25:12.225Z,-4.2
2018-03-29T01:25:47.640Z,-4.1
2018-03-29T01:26:37.673Z,-4.1
2018-03-29T01:27:27.464Z,-4.1
2018-03-29T01:28:18.406Z,-4.1
2018-03-29T01:29:08.746Z,-4.1
2018-03-29T01:29:58.524Z,-4.1
2018-03-29T01:30:48.841Z,-4.1
2018-03-29T01:31:38.349Z,-4.1
2018-03-29T01:32:28.972Z,-4.1
2018-03-29T01:33:18.252Z,-4.1
2018-03-29T01:34:08.870Z,-4.1
2018-03-29T01:34:58.674Z,-4.1
2018-03-29T01:35:48.342Z,-4.1
2018-03-29T01:36:38.486Z,-4.1
2018-03-29T01:37:28.252Z,-4.1
2018-03-29T01:38:19.169Z,-4.1
2018-03-29T01:39:08.877Z,-4.1
2018-03-29T01:39:58.919Z,-4.1
2018-03-29T01:40:49.372Z,-4.2
2018-03-29T01:41:38.714Z,-4.2
2018-03-29T01:42:29.377Z,-4.2
2018-03-29T01:43:18.952Z,-4.2
2018-03-29T01:44:09.528Z,-4.3
2018-03-29T01:44:59.279Z,-4.3
2018-03-29T01:45:49.312Z,-4.3
2018-03-29T01:46:39.696Z,-4.3
2018-03-29T01:47:29.453Z,-4.3
2018-03-29T01:48:19.385Z,-4.3
2018-03-29T01:49:10.123Z,-4.3
2018-03-29T01:49:59.625Z,-4.3
2018-03-29T01:50:50.257Z,-4.3
2018-03-29T01:51:40.026Z,-4.3
2018-03-29T01:52:29.512Z,-4.3
2018-03-29T01:53:19.851Z,-4.3
2018-03-29T01:54:10.192Z,-4.3
2018-03-29T01:54:59.968Z,-4.3
2018-03-29T01:55:50.323Z,-4.3
2018-03-29T01:56:40.156Z,-4.3
2018-03-29T01:57:30.695Z,-4.3
2018-03-29T01:58:20.191Z,-4.3
2018-03-29T01:59:09.761Z,-4.3
2018-03-29T02:00:00.102Z,-4.3
2018-03-29T02:00:50.173Z,-4.3
2018-03-29T02:01:40.509Z,-4.3
2018-03-29T02:02:30.005Z,-4.4
2018-03-29T02:03:20.348Z,-4.4
2018-03-29T02:04:10.123Z,-4.4
2018-03-29T02:05:00.475Z,-4.4
2018-03-29T02:05:50.708Z,-4.4
2018-03-29T02:06:41.339Z,-4.4
2018-03-29T02:07:31.142Z,-4.4
2018-03-29T02:08:20.407Z,-4.4
2018-03-29T02:09:11.050Z,-4.4
2018-03-29T02:10:01.008Z,-4.4
2018-03-29T02:10:51.377Z,-4.4
2018-03-29T02:11:41.435Z,-4.4
2018-03-29T02:12:30.785Z,-4.4
2018-03-29T02:13:21.347Z,-4.4
2018-03-29T02:14:11.890Z,-4.5
2018-03-29T02:15:01.374Z,-4.5
2018-03-29T02:15:51.139Z,-4.5
2018-03-29T02:16:41.590Z,-4.6
2018-03-29T02:17:31.823Z,-4.6
2018-03-29T02:18:21.898Z,-4.6
2018-03-29T02:19:11.959Z,-4.6
2018-03-29T02:20:01.707Z,-4.6
2018-03-29T02:20:52.050Z,-4.6
2018-03-29T02:21:41.621Z,-4.6
2018-03-29T02:22:32.170Z,-4.6
2018-03-29T02:23:22.247Z,-4.6
2018-03-29T02:24:11.708Z,-4.6
2018-03-29T02:25:02.650Z,-4.6
2018-03-29T02:25:51.921Z,-4.6
2018-03-29T02:26:42.197Z,-4.6
2018-03-29T02:27:32.524Z,-4.6
2018-03-29T02:28:22.303Z,-4.6
2018-03-29T02:29:12.067Z,-4.6
2018-03-29T02:30:02.123Z,-4.6
2018-03-29T02:30:52.773Z,-4.6
2018-03-29T02:31:42.036Z,-4.6
2018-03-29T02:32:32.869Z,-4.6
2018-03-29T02:33:22.664Z,-4.6
2018-03-29T02:34:13.002Z,-4.6
2018-03-29T02:35:02.799Z,-4.6
2018-03-29T02:35:52.830Z,-4.6
2018-03-29T02:36:42.894Z,-4.6
2018-03-29T02:37:33.253Z,-4.6
2018-03-29T02:38:22.993Z,-4.7
2018-03-29T02:39:13.329Z,-4.7
2018-03-29T02:40:03.214Z,-4.7
2018-03-29T02:40:53.165Z,-4.7
2018-03-29T02:41:43.827Z,-4.8
2018-03-29T02:42:33.085Z,-4.7
2018-03-29T02:43:23.345Z,-4.8
2018-03-29T02:44:13.207Z,-4.8
2018-03-29T02:45:02.959Z,-4.8
2018-03-29T02:45:53.507Z,-4.8
2018-03-29T02:46:43.166Z,-4.7
2018-03-29T02:47:33.923Z,-4.7
2018-03-29T02:48:23.522Z,-4.7
2018-03-29T02:49:13.549Z,-4.7
2018-03-29T02:50:03.821Z,-4.7
2018-03-29T02:50:53.953Z,-4.7
2018-03-29T02:51:43.720Z,-4.7
2018-03-29T02:52:34.378Z,-4.7
2018-03-29T02:53:23.841Z,-4.7
2018-03-29T02:54:13.999Z,-4.7
2018-03-29T02:55:04.563Z,-4.7
2018-03-29T02:55:54.317Z,-4.7
2018-03-29T02:56:44.154Z,-4.6
2018-03-29T02:57:34.027Z,-4.7
2018-03-29T02:58:24.982Z,-4.6
2018-03-29T02:59:14.324Z,-4.6
2018-03-29T03:00:04.228Z,-4.7
2018-03-29T03:00:54.362Z,-4.6
2018-03-29T03:01:44.623Z,-4.6
2018-03-29T03:02:34.969Z,-4.6
2018-03-29T03:03:24.834Z,-4.6
2018-03-29T03:04:14.490Z,-4.7
2018-03-29T03:05:04.659Z,-4.6
2018-03-29T03:05:55.512Z,-4.7
2018-03-29T03:06:44.688Z,-4.7
2018-03-29T03:07:35.403Z,-4.7
2018-03-29T03:08:25.379Z,-4.7
2018-03-29T03:09:15.169Z,-4.7
2018-03-29T03:10:05.199Z,-4.7
2018-03-29T03:10:55.614Z,-4.7
2018-03-29T03:11:45.532Z,-4.7
2018-03-29T03:12:35.177Z,-4.6
2018-03-29T03:13:26.017Z,-4.7
2018-03-29T03:14:15.900Z,-4.7
2018-03-29T03:15:05.266Z,-4.7
2018-03-29T03:15:55.694Z,-4.7
2018-03-29T03:16:45.661Z,-4.8
2018-03-29T03:17:35.820Z,-4.7
2018-03-29T03:18:25.484Z,-4.8
2018-03-29T03:19:16.121Z,-4.8
2018-03-29T03:20:05.486Z,-4.8
2018-03-29T03:20:55.654Z,-4.8
2018-03-29T03:21:45.737Z,-4.8
2018-03-29T03:22:36.068Z,-4.8
2018-03-29T03:23:25.931Z,-4.8
2018-03-29T03:24:16.170Z,-4.8
2018-03-29T03:25:06.602Z,-4.8
2018-03-29T03:25:56.388Z,-4.8
2018-03-29T03:26:46.660Z,-4.8
2018-03-29T03:27:36.561Z,-4.8
2018-03-29T03:28:26.470Z,-4.8
2018-03-29T03:29:16.250Z,-4.7
2018-03-29T03:30:06.598Z,-4.7
2018-03-29T03:30:56.167Z,-4.7
2018-03-29T03:31:47.303Z,-4.8
2018-03-29T03:32:36.877Z,-4.8
2018-03-29T03:33:27.101Z,-4.8
2018-03-29T03:34:16.890Z,-4.8
2018-03-29T03:35:07.050Z,-4.8
2018-03-29T03:35:57.000Z,-4.7
2018-03-29T03:36:47.053Z,-4.8
2018-03-29T03:37:37.219Z,-4.8
2018-03-29T03:38:27.764Z,-4.7
2018-03-29T03:39:17.216Z,-4.8
2018-03-29T03:40:06.992Z,-4.8
2018-03-29T03:40:57.632Z,-4.8
2018-03-29T03:41:47.021Z,-4.8
2018-03-29T03:42:37.170Z,-4.8
2018-03-29T03:43:27.812Z,-4.8
2018-03-29T03:44:17.872Z,-4.8
2018-03-29T03:45:07.909Z,-4.8
2018-03-29T03:45:57.297Z,-4.8
2018-03-29T03:46:48.326Z,-4.8
2018-03-29T03:47:37.807Z,-4.8
2018-03-29T03:48:28.144Z,-4.8
2018-03-29T03:49:18.204Z,-4.8
2018-03-29T03:50:08.569Z,-4.8
2018-03-29T03:50:58.329Z,-4.8
2018-03-29T03:51:48.396Z,-4.8
2018-03-29T03:52:38.454Z,-4.8
2018-03-29T03:53:28.486Z,-4.9
2018-03-29T03:54:18.879Z,-4.9
2018-03-29T03:55:08.622Z,-4.9
2018-03-29T03:55:58.938Z,-4.9
2018-03-29T03:56:48.724Z,-4.9
2018-03-29T03:57:39.047Z,-4.9
2018-03-29T03:58:28.850Z,-4.9
2018-03-29T03:59:18.913Z,-4.9
2018-03-29T04:00:09.230Z,-4.9
2018-03-29T04:00:58.734Z,-4.9
2018-03-29T04:01:49.384Z,-4.9
2018-03-29T04:02:39.151Z,-4.9
2018-03-29T04:03:29.481Z,-4.9
2018-03-29T04:04:19.564Z,-4.9
2018-03-29T04:05:09.598Z,-4.9
2018-03-29T04:05:59.350Z,-4.9
2018-03-29T04:06:49.425Z,-4.9
2018-03-29T04:07:39.487Z,-4.9
2018-03-29T04:08:29.812Z,-4.9
2018-03-29T04:09:19.596Z,-4.9
2018-03-29T04:10:09.658Z,-4.9
2018-03-29T04:10:59.993Z,-4.9
2018-03-29T04:11:50.043Z,-4.9
2018-03-29T04:12:39.901Z,-4.9
2018-03-29T04:13:29.893Z,-4.9
2018-03-29T04:14:19.675Z,-4.9
2018-03-29T04:15:10.273Z,-4.9
2018-03-29T04:16:00.060Z,-4.9
2018-03-29T04:16:50.126Z,-4.9
2018-03-29T04:17:40.445Z,-5
2018-03-29T04:18:30.217Z,-5
2018-03-29T04:19:20.591Z,-5
2018-03-29T04:20:10.338Z,-5
2018-03-29T04:21:00.433Z,-5
2018-03-29T04:21:50.739Z,-5
2018-03-29T04:22:40.243Z,-5.1
2018-03-29T04:23:30.908Z,-5
2018-03-29T04:24:20.616Z,-5
2018-03-29T04:25:10.708Z,-4.9
2018-03-29T04:26:01.028Z,-4.4
2018-03-29T04:26:51.090Z,-4.5
2018-03-29T04:27:41.156Z,-4.6
2018-03-29T04:28:31.219Z,-4.6
2018-03-29T04:29:20.984Z,-4.6
2018-03-29T04:30:11.039Z,-4.6
2018-03-29T04:31:00.821Z,-4.6
2018-03-29T04:31:51.258Z,-4.7
2018-03-29T04:32:40.948Z,-4.7
2018-03-29T04:33:31.609Z,-4.7
2018-03-29T04:34:21.616Z,-4.8
2018-03-29T04:35:11.183Z,-4.8
2018-03-29T04:36:00.690Z,-4.8
2018-03-29T04:36:51.523Z,-4.7
2018-03-29T04:37:40.994Z,-4.8
2018-03-29T04:38:31.537Z,-4.7
2018-03-29T04:39:21.453Z,-4.7
2018-03-29T04:40:11.765Z,-4.7
2018-03-29T04:41:01.321Z,-4.6
2018-03-29T04:41:51.593Z,-4.6
2018-03-29T04:42:41.332Z,-4.6
2018-03-29T04:43:31.713Z,-4.6
2018-03-29T04:44:21.853Z,-4.5
2018-03-29T04:45:11.810Z,-4.5
2018-03-29T04:46:02.241Z,-4.5
2018-03-29T04:46:51.737Z,-4.4
2018-03-29T04:47:42.289Z,-4.4
2018-03-29T04:48:31.457Z,-4.4
2018-03-29T04:49:22.410Z,-4.3
2018-03-29T04:50:12.455Z,-4.3
2018-03-29T04:51:01.630Z,-4.3
2018-03-29T04:51:52.065Z,-4.2
2018-03-29T04:52:42.648Z,-4.2
2018-03-29T04:53:32.945Z,-4.1
2018-03-29T04:54:22.757Z,-4.1
2018-03-29T04:55:12.814Z,-4.1
2018-03-29T04:56:02.671Z,-4
2018-03-29T04:56:53.214Z,-3.9
2018-03-29T04:57:42.501Z,-3.9
2018-03-29T04:58:33.069Z,-3.8
2018-03-29T05:00:13.162Z,-3.7
2018-03-29T05:01:03.221Z,-3.6
2018-03-29T05:01:52.659Z,-3.6
2018-03-29T05:02:43.109Z,-3.5
2018-03-29T05:03:32.601Z,-3.4
2018-03-29T05:04:23.431Z,-3.3
2018-03-29T05:05:13.299Z,-3.2
2018-03-29T05:06:03.267Z,-3.1
2018-03-29T05:06:53.929Z,-3.1
2018-03-29T05:07:43.391Z,-2.9
2018-03-29T05:08:33.435Z,-2.8
2018-03-29T05:09:23.021Z,-2.6
2018-03-29T05:10:14.134Z,-2.4
2018-03-29T05:11:04.024Z,-2.3
2018-03-29T05:11:53.479Z,-2.1
2018-03-29T05:12:43.826Z,-1.8
2018-03-29T05:13:34.070Z,-1.6
2018-03-29T05:14:23.739Z,-1.3
2018-03-29T05:15:13.807Z,-1
2018-03-29T05:16:04.049Z,-0.7
2018-03-29T05:16:54.028Z,-0.4
2018-03-29T05:17:44.397Z,-0.1
2018-03-29T05:18:34.029Z,0.3
2018-03-29T05:19:24.178Z,0.6
2018-03-29T05:20:14.553Z,0.9
2018-03-29T05:21:04.383Z,1.3
2018-03-29T05:21:54.437Z,1.7
2018-03-29T05:22:44.540Z,2
2018-03-29T05:23:34.904Z,2.4
2018-03-29T05:24:24.353Z,2.7
2018-03-29T05:25:14.594Z,3
2018-03-29T05:26:04.452Z,3.4
2018-03-29T05:26:54.808Z,3.7
2018-03-29T05:27:44.980Z,4
2018-03-29T05:28:34.825Z,4.4
2018-03-29T05:29:24.701Z,4.7
2018-03-29T05:30:14.758Z,5.1
2018-03-29T05:31:05.304Z,5.4
2018-03-29T05:31:55.188Z,5.7
2018-03-29T05:32:44.932Z,6
2018-03-29T05:33:35.162Z,6.4
2018-03-29T05:34:25.350Z,6.8
2018-03-29T05:35:15.592Z,7.1
2018-03-29T05:36:04.867Z,7.5
2018-03-29T05:36:55.207Z,7.9
2018-03-29T05:37:45.855Z,8.3
2018-03-29T05:38:35.872Z,8.6
2018-03-29T05:39:25.297Z,8.9
2018-03-29T05:40:15.450Z,9.3
2018-03-29T05:41:05.970Z,9.6
2018-03-29T05:41:56.336Z,10
2018-03-29T05:42:46.381Z,10.3
2018-03-29T05:43:36.451Z,10.8
2018-03-29T05:44:26.227Z,11.2
2018-03-29T05:45:16.557Z,11.6
2018-03-29T05:46:06.029Z,12.1
2018-03-29T05:46:56.978Z,12.5
2018-03-29T05:47:46.735Z,12.9
2018-03-29T05:48:36.776Z,13.3
2018-03-29T05:49:26.859Z,13.8
2018-03-29T05:50:16.899Z,14.2
2018-03-29T05:51:06.966Z,14.7
2018-03-29T05:51:57.007Z,15.3
2018-03-29T05:52:46.786Z,15.8
2018-03-29T05:53:37.134Z,16.4
2018-03-29T05:54:27.185Z,16.9
2018-03-29T05:55:16.976Z,17.6
2018-03-29T05:56:07.029Z,18.2
2018-03-29T05:56:57.386Z,18.8
2018-03-29T05:57:47.138Z,19.4
2018-03-29T05:58:36.944Z,19.9
2018-03-29T05:59:27.083Z,20.5
2018-03-29T06:00:17.030Z,21.1
2018-03-29T06:01:07.190Z,21.6
2018-03-29T06:01:57.546Z,22.1
2018-03-29T06:02:47.488Z,22.7
2018-03-29T06:03:36.981Z,23.3
2018-03-29T06:04:27.631Z,23.8
2018-03-29T06:05:16.983Z,24.3
2018-03-29T06:06:07.453Z,24.8
2018-03-29T06:06:57.505Z,25.3
2018-03-29T06:07:47.875Z,25.8
2018-03-29T06:08:37.626Z,26.3
2018-03-29T06:09:27.185Z,26.8
2018-03-29T06:10:17.587Z,27.3
2018-03-29T06:11:07.681Z,27.9
2018-03-29T06:11:57.981Z,28.4
2018-03-29T06:12:47.917Z,28.9
2018-03-29T06:13:38.082Z,29.4
2018-03-29T06:14:28.147Z,30
2018-03-29T06:15:18.385Z,30.4
2018-03-29T06:16:07.834Z,30.9
2018-03-29T06:16:58.348Z,31.4
2018-03-29T06:17:48.731Z,31.9
2018-03-29T06:18:38.623Z,32.4
2018-03-29T06:19:28.190Z,32.9
2018-03-29T06:20:19.050Z,33.3
2018-03-29T06:21:08.300Z,33.8
2018-03-29T06:21:58.665Z,34.2
2018-03-29T06:22:48.909Z,34.7
2018-03-29T06:23:38.482Z,35.2
2018-03-29T06:24:28.725Z,35.7
2018-03-29T06:25:19.112Z,36.1
2018-03-29T06:26:08.563Z,36.6
2018-03-29T06:26:58.919Z,37.1
2018-03-29T06:27:49.045Z,37.5
2018-03-29T06:28:39.324Z,37.9
2018-03-29T06:29:29.677Z,38.4
2018-03-29T06:30:19.489Z,38.9
2018-03-29T06:31:09.500Z,39.4
2018-03-29T06:31:59.137Z,39.9
2018-03-29T06:32:49.329Z,40.4
2018-03-29T06:33:39.369Z,40.8
2018-03-29T06:34:29.737Z,41.2
2018-03-29T06:35:20.108Z,41.8
2018-03-29T06:36:09.863Z,42.3
2018-03-29T06:36:59.593Z,42.8
2018-03-29T06:37:49.953Z,43.3
2018-03-29T06:38:40.150Z,43.7
2018-03-29T06:39:29.875Z,44.1
2018-03-29T06:40:19.853Z,44.6
2018-03-29T06:41:10.204Z,45.1
2018-03-29T06:41:59.666Z,45.6
2018-03-29T06:42:50.588Z,46.1
2018-03-29T06:43:40.674Z,46.7
2018-03-29T06:44:30.773Z,47.3
2018-03-29T06:45:20.774Z,47.8
2018-03-29T06:46:10.864Z,48.3
2018-03-29T06:47:00.711Z,48.9
2018-03-29T06:47:50.668Z,49.4
2018-03-29T06:48:40.716Z,49.9
2018-03-29T06:49:30.206Z,50.4
2018-03-29T06:50:20.834Z,51.1
2018-03-29T06:51:10.606Z,51.6
2018-03-29T06:52:01.233Z,52.2
2018-03-29T06:52:50.813Z,53.8
2018-03-29T06:53:40.795Z,52.4
2018-03-29T06:54:30.633Z,49.1
2018-03-29T06:55:20.993Z,47.6
2018-03-29T06:56:11.353Z,46.2
2018-03-29T06:57:01.295Z,45.2
2018-03-29T06:57:51.174Z,44.6
2018-03-29T06:58:41.722Z,44.2
2018-03-29T06:59:31.493Z,44.1
2018-03-29T07:00:21.850Z,44.1
2018-03-29T07:01:11.203Z,44.3
2018-03-29T07:02:01.193Z,44.7
2018-03-29T07:02:51.220Z,45.3
2018-03-29T07:03:41.507Z,45.9
2018-03-29T07:04:31.348Z,46.6
2018-03-29T07:05:21.687Z,47.2
2018-03-29T07:06:11.688Z,47.9
2018-03-29T07:07:01.440Z,48.4
2018-03-29T07:07:52.323Z,49.2
2018-03-29T07:08:42.140Z,50.1
2018-03-29T07:09:31.793Z,52.1
2018-03-29T07:10:21.684Z,50.9
2018-03-29T07:11:11.701Z,47.3
2018-03-29T07:12:02.689Z,45.8
2018-03-29T07:12:52.430Z,45.3
2018-03-29T07:13:41.999Z,45
2018-03-29T07:14:31.562Z,45
2018-03-29T07:15:22.335Z,45.6
2018-03-29T07:16:12.654Z,46.4
2018-03-29T07:17:02.755Z,47.2
2018-03-29T07:17:52.800Z,48.1
2018-03-29T07:18:42.846Z,49
2018-03-29T07:19:32.712Z,49.9
2018-03-29T07:20:22.494Z,51
2018-03-29T07:21:13.145Z,52.8
2018-03-29T07:22:03.096Z,51
2018-03-29T07:22:52.658Z,49.5
2018-03-29T07:23:42.711Z,48.9
2018-03-29T07:24:32.972Z,47.6
2018-03-29T07:25:23.106Z,46.4
2018-03-29T07:26:13.075Z,45.9
2018-03-29T07:27:03.171Z,46.4
2018-03-29T07:27:52.811Z,47.5
2018-03-29T07:28:43.863Z,48.6
2018-03-29T07:29:33.905Z,49.6
2018-03-29T07:30:23.422Z,49.9
2018-03-29T07:31:13.756Z,50.1
2018-03-29T07:32:03.515Z,50.1
2018-03-29T07:32:53.853Z,50
2018-03-29T07:33:43.126Z,49.8
2018-03-29T07:34:33.781Z,49.8
2018-03-29T07:35:23.748Z,49.9
2018-03-29T07:36:14.083Z,50.4
2018-03-29T07:37:03.685Z,50.6
2018-03-29T07:37:54.213Z,50.9
2018-03-29T07:38:44.296Z,51.2
2018-03-29T07:39:34.353Z,51.6
2018-03-29T07:40:24.700Z,51.8
2018-03-29T07:42:04.045Z,52
2018-03-29T07:42:54.664Z,52.2
2018-03-29T07:43:44.523Z,52.5
2018-03-29T07:44:34.120Z,52.8
2018-03-29T07:45:25.040Z,53
2018-03-29T07:46:14.632Z,53.3
2018-03-29T07:47:04.643Z,53.4
2018-03-29T07:47:54.932Z,53.8
2018-03-29T07:48:44.995Z,53.9
2018-03-29T07:49:34.767Z,54.1
2018-03-29T07:50:25.120Z,54.3
2018-03-29T07:51:14.889Z,54.4
2018-03-29T07:52:04.955Z,54.6
2018-03-29T07:52:54.819Z,54.8
2018-03-29T07:53:45.354Z,54.9
2018-03-29T07:54:34.439Z,55.2
2018-03-29T07:55:25.771Z,55.4
2018-03-29T07:56:15.554Z,55.8
2018-03-29T07:57:05.317Z,55.9
2018-03-29T07:57:55.481Z,56.1
2018-03-29T07:58:45.744Z,56.2
2018-03-29T07:59:35.095Z,56.3
2018-03-29T08:00:26.174Z,56.5
2018-03-29T08:01:15.890Z,56.7
2018-03-29T08:02:05.179Z,56.9
2018-03-29T08:02:55.754Z,56.9
2018-03-29T08:03:45.893Z,57.1
2018-03-29T08:04:35.581Z,57.3
2018-03-29T08:05:26.004Z,57.4
2018-03-29T08:06:15.882Z,57.6
2018-03-29T08:07:06.027Z,57.7
2018-03-29T08:07:55.794Z,57.6
2018-03-29T08:08:46.261Z,57.4
2018-03-29T08:09:36.224Z,57.1
2018-03-29T08:10:26.679Z,56.8
2018-03-29T08:11:16.632Z,56.6
2018-03-29T08:12:06.408Z,56.4
2018-03-29T08:12:56.289Z,56.5
2018-03-29T08:13:46.574Z,56.6
2018-03-29T08:14:36.889Z,56.5
2018-03-29T08:15:26.446Z,56.5
2018-03-29T08:16:16.614Z,56.4
2018-03-29T08:17:07.172Z,56.4
2018-03-29T08:17:56.931Z,56.4
2018-03-29T08:18:46.781Z,56.4
2018-03-29T08:19:36.768Z,56.4
2018-03-29T08:20:26.906Z,56.5
2018-03-29T08:21:16.886Z,56.6
2018-03-29T08:22:06.961Z,56.7
2018-03-29T08:22:57.192Z,56.8
2018-03-29T08:23:47.366Z,56.8
2018-03-29T08:24:37.123Z,56.8
2018-03-29T08:25:27.481Z,56.8
2018-03-29T08:26:17.526Z,56.9
2018-03-29T08:27:07.508Z,56.9
2018-03-29T08:27:57.273Z,57.1
2018-03-29T08:28:47.621Z,57.1
2018-03-29T08:29:37.975Z,57.3
2018-03-29T08:30:28.053Z,57.4
2018-03-29T08:31:17.690Z,57.4
2018-03-29T08:32:07.570Z,57.6
2018-03-29T08:32:57.441Z,57.6
2018-03-29T08:34:38.150Z,57.9
2018-03-29T08:35:28.212Z,58.1
2018-03-29T08:36:18.281Z,58.2
2018-03-29T08:37:08.572Z,58.4
2018-03-29T08:37:58.580Z,58.4
2018-03-29T08:38:48.210Z,58.4
2018-03-29T08:40:28.765Z,58.8
2018-03-29T08:41:17.835Z,58.9
2018-03-29T08:42:08.115Z,59
2018-03-29T08:42:58.274Z,58.9
2018-03-29T08:43:48.237Z,58.9
2018-03-29T08:44:38.896Z,59
2018-03-29T08:45:28.152Z,59.1
2018-03-29T08:46:18.713Z,59.3
2018-03-29T08:47:08.386Z,59.4
2018-03-29T08:47:58.744Z,59.5
2018-03-29T08:48:49.401Z,59.8
2018-03-29T08:49:39.141Z,59.9
2018-03-29T08:50:28.923Z,59.9
2018-03-29T08:51:19.288Z,59.9
2018-03-29T08:52:09.639Z,60.1
2018-03-29T08:52:59.656Z,60.3
2018-03-29T08:53:49.833Z,60.4
2018-03-29T08:54:39.422Z,60.5
2018-03-29T08:55:30.138Z,60.6
2018-03-29T08:56:19.330Z,60.8
2018-03-29T08:57:09.693Z,61.1
2018-03-29T08:58:00.043Z,61.1
2018-03-29T08:58:49.817Z,61.3
2018-03-29T08:59:39.883Z,61.4
2018-03-29T09:00:30.505Z,61.5
2018-03-29T09:01:20.275Z,61.5
2018-03-29T09:02:10.362Z,61.5
2018-03-29T09:02:59.962Z,61.6
2018-03-29T09:03:49.701Z,61.6
2018-03-29T09:04:40.534Z,61.8
2018-03-29T09:05:30.913Z,61.9
2018-03-29T09:06:20.367Z,62.1
2018-03-29T09:07:10.719Z,62.1
2018-03-29T09:08:00.197Z,62.2
2018-03-29T09:08:50.906Z,62.5
2018-03-29T09:09:40.514Z,62.8
2018-03-29T09:10:30.684Z,62.9
2018-03-29T09:11:21.029Z,63.1
2018-03-29T09:12:10.500Z,63.4
2018-03-29T09:13:01.243Z,63.6
2018-03-29T09:13:50.622Z,63.8
2018-03-29T09:14:41.250Z,63.8
2018-03-29T09:15:31.154Z,63.9
2018-03-29T09:16:21.397Z,63.9
2018-03-29T09:17:11.153Z,63.8
2018-03-29T09:18:01.497Z,63.8
2018-03-29T09:18:51.169Z,64
2018-03-29T09:19:41.029Z,64.3
2018-03-29T09:20:31.414Z,64.5
2018-03-29T09:21:21.169Z,64.8
2018-03-29T09:22:11.807Z,64.9
2018-03-29T09:23:01.864Z,65.1
2018-03-29T09:23:51.719Z,65.3
2018-03-29T09:24:41.496Z,65.4
2018-03-29T09:25:31.803Z,65.4
2018-03-29T09:26:21.901Z,65.6
2018-03-29T09:27:11.907Z,65.7
2018-03-29T09:28:02.226Z,65.6
2018-03-29T09:28:51.228Z,65.6
2018-03-29T09:29:41.668Z,65.8
2018-03-29T09:30:32.212Z,65.8
2018-03-29T09:31:21.985Z,65.9
2018-03-29T09:32:11.754Z,65.9
2018-03-29T09:33:01.825Z,66
2018-03-29T09:33:51.975Z,66.1
2018-03-29T09:34:41.935Z,66.2
2018-03-29T09:35:31.708Z,66.3
2018-03-29T09:36:22.065Z,66.3
2018-03-29T09:37:12.421Z,66.4
2018-03-29T09:38:02.778Z,66.4
2018-03-29T09:38:53.305Z,66.6
2018-03-29T09:39:43.090Z,66.8
2018-03-29T09:40:32.859Z,67
2018-03-29T09:41:23.199Z,67.1
2018-03-29T09:42:12.961Z,67.3
2018-03-29T09:43:03.322Z,67.4
2018-03-29T09:43:53.174Z,67.4
2018-03-29T09:44:43.154Z,67.6
2018-03-29T09:45:33.212Z,67.6
2018-03-29T09:46:23.570Z,67.6
2018-03-29T09:47:13.441Z,67.8
2018-03-29T09:48:03.303Z,67.8
2018-03-29T09:48:53.754Z,67.9
2018-03-29T09:49:43.810Z,67.8
2018-03-29T09:50:34.174Z,67.9
2018-03-29T09:51:23.544Z,68.1
2018-03-29T09:52:13.810Z,68.3
2018-03-29T09:53:03.576Z,68.3
2018-03-29T09:53:53.836Z,68.5
2018-03-29T09:54:43.685Z,68.7
2018-03-29T09:55:34.254Z,68.9
2018-03-29T09:56:23.892Z,69
2018-03-29T09:57:13.902Z,69.1
2018-03-29T09:58:03.936Z,69.1
2018-03-29T09:58:54.291Z,69.1
2018-03-29T09:59:44.268Z,69.1
2018-03-29T10:00:34.332Z,69.2
2018-03-29T10:01:24.395Z,69.2
2018-03-29T10:02:14.454Z,69.3
2018-03-29T10:03:04.019Z,69.4
2018-03-29T10:03:54.874Z,69.6
2018-03-29T10:04:44.616Z,69.8
2018-03-29T10:05:35.088Z,69.8
2018-03-29T10:06:25.037Z,69.9
2018-03-29T10:07:14.405Z,70.1
2018-03-29T10:08:04.966Z,70.1
2018-03-29T10:08:54.963Z,70
2018-03-29T10:09:44.816Z,70
2018-03-29T10:10:34.378Z,70
2018-03-29T10:11:24.632Z,69.9
2018-03-29T10:12:14.752Z,69.9
2018-03-29T10:13:04.763Z,69.9
2018-03-29T10:13:55.108Z,70
2018-03-29T10:14:45.183Z,70.1
2018-03-29T10:15:35.238Z,70.3
2018-03-29T10:16:25.014Z,70.4
2018-03-29T10:17:15.338Z,70.5
2018-03-29T10:18:05.123Z,70.5
2018-03-29T10:18:55.623Z,70.6
2018-03-29T10:19:45.240Z,70.6
2018-03-29T10:20:35.390Z,70.6
2018-03-29T10:21:25.088Z,70.7
2018-03-29T10:22:16.023Z,70.9
2018-03-29T10:23:05.498Z,70.8
2018-03-29T10:23:55.860Z,70.6
2018-03-29T10:24:45.630Z,70.7
2018-03-29T10:25:35.785Z,70.9
2018-03-29T10:26:25.643Z,70.9
2018-03-29T10:27:16.091Z,70.9
2018-03-29T10:28:05.824Z,71
2018-03-29T10:28:56.496Z,70.9
2018-03-29T10:29:45.981Z,71
2018-03-29T10:30:36.033Z,70.8
2018-03-29T10:31:26.101Z,70.6
2018-03-29T10:32:16.217Z,70.6
2018-03-29T10:33:06.825Z,70.6
2018-03-29T10:33:56.277Z,70.4
2018-03-29T10:34:46.650Z,70.4
2018-03-29T10:35:36.412Z,70.6
2018-03-29T10:36:26.467Z,70.7
2018-03-29T10:37:16.854Z,70.6
2018-03-29T10:38:07.174Z,70.7
2018-03-29T10:38:56.371Z,70.7
2018-03-29T10:39:47.319Z,70.4
2018-03-29T10:40:37.376Z,69.4
2018-03-29T10:41:26.834Z,68.8
2018-03-29T10:42:16.997Z,68.4
2018-03-29T10:43:07.270Z,68.2
2018-03-29T10:43:57.594Z,68.2
2018-03-29T10:44:47.449Z,68.5
2018-03-29T10:45:37.522Z,68.8
2018-03-29T10:46:27.501Z,69
2018-03-29T10:47:17.571Z,69
2018-03-29T10:48:07.147Z,68.9
2018-03-29T10:48:57.958Z,68.7
2018-03-29T10:49:47.164Z,68.8
2018-03-29T10:50:37.802Z,68.8
2018-03-29T10:51:27.562Z,69.1
2018-03-29T10:52:17.921Z,69.2
2018-03-29T10:53:07.683Z,69.3
2018-03-29T10:53:58.038Z,69
2018-03-29T10:54:47.909Z,68.9
2018-03-29T10:55:37.874Z,68.8
2018-03-29T10:56:28.230Z,68.8
2018-03-29T10:57:17.886Z,68.8
2018-03-29T10:58:08.370Z,69.1
2018-03-29T10:58:58.396Z,69.3
2018-03-29T10:59:48.178Z,69.5
2018-03-29T11:00:38.054Z,69.8
2018-03-29T11:01:28.882Z,69.8
2018-03-29T11:02:18.633Z,69.9
2018-03-29T11:03:09.000Z,70
2018-03-29T11:03:58.490Z,70
2018-03-29T11:04:48.550Z,70.1
2018-03-29T11:05:38.610Z,70.1
2018-03-29T11:06:28.471Z,70.2
2018-03-29T11:07:19.025Z,70.3
2018-03-29T11:08:08.779Z,70.4
2018-03-29T11:08:59.447Z,70.4
2018-03-29T11:09:49.206Z,70.4
2018-03-29T11:10:38.779Z,70.4
2018-03-29T11:11:29.425Z,70.6
2018-03-29T11:12:19.385Z,70.6
2018-03-29T11:13:09.475Z,70.8
2018-03-29T11:13:59.595Z,70.9
2018-03-29T11:14:49.379Z,71
2018-03-29T11:15:39.739Z,70.9
2018-03-29T11:16:29.692Z,70.6
2018-03-29T11:17:20.062Z,70.5
2018-03-29T11:18:09.612Z,70.5
2018-03-29T11:18:59.970Z,70.4